Time;durP1;ratioP1;P1;durP2;ratioP2;P2;SDS_P1;SDS_P2;PMS_P1;PMS_P2;Temp;Humidity;BMP_temperature;BMP_pressure;BME280_temperature;BME280_humidity;BME280_pressure;Samples;Min_cycle;Max_cycle;Signal;HPM_P1;HPM_P2
2024/03/26 00:02:23;;;;;;;;;;;5.90;99.90;;;;;;6737930;88;20222;-76
2024/03/26 00:12:24;;;;;;;;;;;6.00;99.90;;;;;;6735716;88;20152;-76
2024/03/26 00:22:25;;;;;;;;;;;5.60;99.90;;;;;;6739161;88;20058;-78
2024/03/26 00:32:25;;;;;;;;;;;5.50;99.90;;;;;;6740112;88;20527;-77
2024/03/26 00:42:26;;;;;;;;;;;6.00;99.90;;;;;;6739187;88;20083;-78
2024/03/26 00:52:26;;;;;;;;;;;5.90;99.90;;;;;;6737913;88;20126;-78
2024/03/26 01:02:26;;;;;;;;;;;5.90;99.90;;;;;;6739798;88;20312;-77
2024/03/26 01:12:27;;;;;;;;;;;6.00;99.90;;;;;;6740238;88;20104;-78
2024/03/26 01:22:27;;;;;;;;;;;6.30;99.90;;;;;;6741834;88;20089;-78
2024/03/26 01:42:31;;;;;;;;;;;6.30;99.90;;;;;;6743451;88;20501;-78
2024/03/26 01:52:32;;;;;;;;;;;6.40;99.90;;;;;;6735301;88;20189;-78
2024/03/26 02:02:32;;;;;;;;;;;6.40;99.90;;;;;;6728644;88;20086;-76
2024/03/26 02:12:33;;;;;;;;;;;6.40;99.90;;;;;;6732880;88;20067;-77
2024/03/26 02:22:33;;;;;;;;;;;6.40;99.90;;;;;;6736710;88;20083;-77
2024/03/26 02:32:34;;;;;;;;;;;6.40;99.90;;;;;;6727415;88;20081;-78
2024/03/26 02:42:34;;;;;;;;;;;6.40;99.90;;;;;;6744203;88;20066;-77
2024/03/26 02:52:35;;;;;;;;;;;6.50;99.90;;;;;;6729554;88;20124;-76
2024/03/26 03:02:35;;;;;;;;;;;6.40;99.90;;;;;;6729589;88;20522;-76
2024/03/26 03:12:36;;;;;;;;;;;6.50;99.90;;;;;;6729431;88;20087;-76
2024/03/26 03:22:39;;;;;;;;;;;6.50;99.90;;;;;;6727324;88;20085;-76
2024/03/26 03:32:40;;;;;;;;;;;6.50;99.90;;;;;;6730402;88;20067;-77
2024/03/26 03:42:40;;;;;;;;;;;6.60;99.90;;;;;;6728557;88;20081;-77
2024/03/26 03:52:40;;;;;;;;;;;6.60;99.90;;;;;;6725545;88;20872;-78
2024/03/26 04:02:41;;;;;;;;;;;6.60;99.90;;;;;;6731149;88;20185;-77
2024/03/26 04:12:42;;;;;;;;;;;6.70;99.90;;;;;;6730856;88;20210;-79
2024/03/26 04:22:45;;;;;;;;;;;6.70;99.90;;;;;;6736304;88;20094;-77
2024/03/26 04:32:46;;;;;;;;;;;6.60;99.90;;;;;;6735006;88;20910;-79
2024/03/26 04:42:46;;;;;;;;;;;6.60;99.90;;;;;;6732646;88;20054;-78
2024/03/26 04:52:47;;;;;;;;;;;6.70;99.90;;;;;;6725877;88;20623;-79
2024/03/26 05:02:47;;;;;;;;;;;6.60;99.90;;;;;;6729935;88;20076;-77
2024/03/26 05:12:48;;;;;;;;;;;6.50;99.90;;;;;;6730482;88;20534;-77
2024/03/26 05:22:48;;;;;;;;;;;6.50;99.90;;;;;;6727699;88;20084;-78
2024/03/26 05:32:50;;;;;;;;;;;6.50;99.90;;;;;;6727268;88;20063;-79
2024/03/26 05:42:50;;;;;;;;;;;6.40;99.90;;;;;;6722231;88;20059;-78
2024/03/26 05:52:51;;;;;;;;;;;6.50;99.90;;;;;;6723259;88;20059;-78
2024/03/26 06:02:51;;;;;;;;;;;6.50;99.90;;;;;;6724449;88;20122;-78
2024/03/26 06:12:52;;;;;;;;;;;6.50;99.90;;;;;;6731939;88;20156;-79
2024/03/26 06:22:52;;;;;;;;;;;6.60;99.90;;;;;;6724728;88;20183;-78
2024/03/26 06:32:53;;;;;;;;;;;6.70;99.90;;;;;;6723735;88;20186;-79
2024/03/26 06:42:53;;;;;;;;;;;6.80;99.90;;;;;;6729925;88;20088;-79
2024/03/26 06:52:54;;;;;;;;;;;6.90;99.90;;;;;;6731570;88;20063;-80
2024/03/26 07:02:57;;;;;;;;;;;7.00;99.90;;;;;;6735831;88;20070;-79
2024/03/26 07:12:57;;;;;;;;;;;7.00;99.90;;;;;;6726104;88;20494;-78
2024/03/26 07:22:58;;;;;;;;;;;7.20;99.90;;;;;;6724701;88;20529;-77
2024/03/26 07:32:58;;;;;;;;;;;7.30;99.90;;;;;;6731344;77;20092;-76
2024/03/26 07:42:58;;;;;;;;;;;7.40;99.90;;;;;;6742202;88;20503;-77
2024/03/26 07:52:59;;;;;;;;;;;7.50;99.90;;;;;;6744308;88;20066;-77
2024/03/26 08:02:59;;;;;;;;;;;7.50;99.90;;;;;;6744918;88;20536;-78
2024/03/26 08:13:00;;;;;;;;;;;7.40;99.90;;;;;;6750314;88;20091;-80
2024/03/26 08:23:02;;;;;;;;;;;7.40;99.90;;;;;;6743737;88;20065;-78
2024/03/26 08:33:03;;;;;;;;;;;7.60;99.90;;;;;;6742913;88;20188;-78
2024/03/26 08:43:03;;;;;;;;;;;7.80;99.90;;;;;;6743819;88;20132;-77
2024/03/26 08:53:04;;;;;;;;;;;7.90;99.90;;;;;;6742827;88;20255;-77
2024/03/26 09:03:04;;;;;;;;;;;8.00;99.90;;;;;;6741478;88;20101;-77
2024/03/26 09:13:05;;;;;;;;;;;7.90;99.90;;;;;;6741721;88;20053;-76
2024/03/26 09:23:05;;;;;;;;;;;8.00;99.90;;;;;;6742436;88;20088;-77
2024/03/26 09:33:06;;;;;;;;;;;8.20;99.90;;;;;;6738903;88;20080;-78
2024/03/26 09:43:07;;;;;;;;;;;8.50;99.90;;;;;;6745382;88;20089;-77
2024/03/26 09:53:09;;;;;;;;;;;8.90;99.90;;;;;;6751230;88;20051;-78
2024/03/26 10:03:10;;;;;;;;;;;9.10;99.90;;;;;;6741373;88;20097;-78
2024/03/26 10:13:12;;;;;;;;;;;9.30;99.90;;;;;;6737296;88;20109;-78
2024/03/26 10:23:12;;;;;;;;;;;9.40;99.90;;;;;;6741226;88;20063;-77
2024/03/26 10:33:13;;;;;;;;;;;9.60;99.90;;;;;;6752818;88;20528;-78
2024/03/26 10:43:14;;;;;;;;;;;9.80;99.90;;;;;;6750580;88;20070;-78
2024/03/26 10:53:15;;;;;;;;;;;10.50;99.90;;;;;;6743480;88;20092;-77
2024/03/26 11:03:16;;;;;;;;;;;10.90;99.90;;;;;;6744488;88;20140;-76
2024/03/26 11:13:16;;;;;;;;;;;11.00;99.90;;;;;;6741479;88;20079;-76
2024/03/26 11:23:20;;;;;;;;;;;10.70;99.90;;;;;;6743419;88;20062;-77
2024/03/26 11:33:21;;;;;;;;;;;10.90;99.90;;;;;;6750062;88;20105;-80
2024/03/26 11:43:22;;;;;;;;;;;10.80;99.90;;;;;;6754901;88;20690;-77
2024/03/26 11:53:22;;;;;;;;;;;11.10;99.90;;;;;;6742124;88;20105;-77
2024/03/26 12:03:23;;;;;;;;;;;11.60;99.90;;;;;;6743411;88;20171;-78
2024/03/26 12:13:23;;;;;;;;;;;12.00;99.90;;;;;;6742635;88;20122;-77
2024/03/26 12:23:24;;;;;;;;;;;11.90;99.90;;;;;;6740136;88;20103;-77
2024/03/26 12:33:25;;;;;;;;;;;11.90;99.90;;;;;;6739285;88;20173;-78
2024/03/26 12:43:25;;;;;;;;;;;12.20;99.90;;;;;;6746254;88;20608;-80
2024/03/26 12:53:27;;;;;;;;;;;12.60;99.90;;;;;;6749212;88;20168;-79
2024/03/26 13:03:27;;;;;;;;;;;13.80;99.90;;;;;;6748764;88;20059;-79
2024/03/26 13:13:29;;;;;;;;;;;15.20;99.90;;;;;;6744982;88;20067;-77
2024/03/26 13:23:30;;;;;;;;;;;15.30;99.40;;;;;;6739885;88;20144;-78
2024/03/26 13:33:31;;;;;;;;;;;14.80;99.80;;;;;;6743854;88;20697;-78
2024/03/26 13:43:31;;;;;;;;;;;14.50;99.50;;;;;;6740071;88;20101;-78
2024/03/26 13:53:31;;;;;;;;;;;14.60;98.90;;;;;;6747175;88;20082;-79
2024/03/26 14:03:32;;;;;;;;;;;14.40;98.30;;;;;;6750085;88;20097;-79
2024/03/26 14:13:32;;;;;;;;;;;14.20;98.80;;;;;;6747276;88;20062;-80
2024/03/26 14:23:33;;;;;;;;;;;13.90;99.00;;;;;;6747026;88;20076;-78
2024/03/26 14:33:33;;;;;;;;;;;14.20;99.20;;;;;;6744336;88;20046;-79
2024/03/26 14:43:34;;;;;;;;;;;14.50;99.00;;;;;;6752325;88;20092;-79
2024/03/26 14:53:34;;;;;;;;;;;15.00;98.90;;;;;;6751045;88;20087;-79
2024/03/26 15:03:35;;;;;;;;;;;15.30;98.00;;;;;;6751413;88;20124;-80
2024/03/26 15:13:35;;;;;;;;;;;15.20;98.60;;;;;;6757154;88;20183;-80
2024/03/26 15:23:36;;;;;;;;;;;15.70;98.40;;;;;;6745582;88;20106;-80
2024/03/26 15:33:36;;;;;;;;;;;15.20;98.90;;;;;;6744330;88;20051;-78
2024/03/26 15:43:37;;;;;;;;;;;15.10;98.90;;;;;;6746385;88;20062;-79
2024/03/26 15:53:37;;;;;;;;;;;15.40;98.80;;;;;;6743560;88;20071;-79
2024/03/26 16:03:38;;;;;;;;;;;16.20;98.20;;;;;;6748156;88;20516;-78
2024/03/26 16:13:38;;;;;;;;;;;16.40;98.00;;;;;;6744992;88;20557;-79
2024/03/26 16:23:39;;;;;;;;;;;15.70;98.60;;;;;;6745033;88;20087;-79
2024/03/26 16:33:39;;;;;;;;;;;15.20;98.90;;;;;;6744648;88;20140;-79
2024/03/26 16:43:40;;;;;;;;;;;15.70;98.60;;;;;;6746905;88;20145;-79
2024/03/26 16:53:40;;;;;;;;;;;15.60;99.10;;;;;;6742442;88;20058;-79
2024/03/26 17:03:41;;;;;;;;;;;15.50;99.00;;;;;;6737668;88;20058;-79
2024/03/26 17:13:41;;;;;;;;;;;15.20;99.50;;;;;;6743377;88;20100;-78
2024/03/26 17:23:42;;;;;;;;;;;14.90;99.90;;;;;;6742873;88;20111;-77
2024/03/26 17:33:42;;;;;;;;;;;14.70;99.90;;;;;;6742671;88;20539;-79
2024/03/26 17:43:42;;;;;;;;;;;14.50;99.90;;;;;;6743208;88;20130;-78
2024/03/26 17:53:43;;;;;;;;;;;14.10;99.90;;;;;;6751352;88;20109;-80
2024/03/26 18:03:43;;;;;;;;;;;14.00;99.90;;;;;;6746188;88;20121;-79
2024/03/26 18:13:44;;;;;;;;;;;13.90;99.60;;;;;;6747072;88;20532;-79
2024/03/26 18:23:44;;;;;;;;;;;13.70;99.00;;;;;;6745362;88;20068;-79
2024/03/26 18:33:45;;;;;;;;;;;13.60;98.90;;;;;;6746657;88;20041;-79
2024/03/26 18:43:45;;;;;;;;;;;13.50;99.10;;;;;;6751395;88;20164;-79
2024/03/26 18:53:46;;;;;;;;;;;13.30;99.40;;;;;;6747161;88;20068;-78
2024/03/26 19:03:47;;;;;;;;;;;13.20;99.90;;;;;;6746063;88;20079;-78
2024/03/26 19:13:48;;;;;;;;;;;13.00;99.70;;;;;;6745974;88;20050;-79
2024/03/26 19:23:48;;;;;;;;;;;12.90;99.80;;;;;;6744438;88;20062;-79
2024/03/26 19:33:49;;;;;;;;;;;12.80;99.90;;;;;;6745176;88;20072;-78
2024/03/26 19:43:49;;;;;;;;;;;12.60;99.90;;;;;;6749938;87;20076;-78
2024/03/26 19:53:50;;;;;;;;;;;12.50;99.90;;;;;;6743702;88;20090;-77
2024/03/26 20:03:50;;;;;;;;;;;12.40;99.90;;;;;;6744556;88;20502;-77
2024/03/26 20:13:52;;;;;;;;;;;12.50;99.90;;;;;;6735162;88;20067;-78
2024/03/26 20:23:52;;;;;;;;;;;12.30;99.90;;;;;;6741800;88;20654;-77
2024/03/26 20:33:52;;;;;;;;;;;12.30;99.90;;;;;;6758993;88;20090;-77
2024/03/26 20:43:54;;;;;;;;;;;12.40;99.90;;;;;;6753934;88;20089;-78
2024/03/26 20:53:54;;;;;;;;;;;12.40;99.90;;;;;;6755826;88;20078;-78
2024/03/26 21:03:55;;;;;;;;;;;12.30;99.90;;;;;;6746560;88;20513;-77
2024/03/26 21:13:55;;;;;;;;;;;12.10;99.90;;;;;;6740695;88;20238;-78
2024/03/26 21:23:56;;;;;;;;;;;12.00;99.90;;;;;;6747661;88;20135;-78
2024/03/26 21:33:56;;;;;;;;;;;11.80;99.90;;;;;;6737430;88;20067;-77
2024/03/26 21:43:57;;;;;;;;;;;11.80;99.90;;;;;;6738415;88;20452;-77
2024/03/26 21:53:57;;;;;;;;;;;11.70;99.90;;;;;;6737745;88;20116;-78
2024/03/26 22:03:58;;;;;;;;;;;11.60;99.90;;;;;;6737803;88;20093;-79
2024/03/26 22:13:58;;;;;;;;;;;11.50;99.90;;;;;;6737553;88;20054;-78
2024/03/26 22:23:59;;;;;;;;;;;11.40;99.90;;;;;;6752964;88;20074;-78
2024/03/26 22:33:59;;;;;;;;;;;11.40;99.90;;;;;;6736543;88;20059;-79
2024/03/26 22:44:00;;;;;;;;;;;11.40;99.90;;;;;;6738880;88;20065;-77
2024/03/26 22:54:00;;;;;;;;;;;11.30;99.90;;;;;;6740810;88;20113;-78
2024/03/26 23:04:01;;;;;;;;;;;11.30;99.90;;;;;;6745722;88;20058;-78
2024/03/26 23:14:02;;;;;;;;;;;11.30;99.90;;;;;;6742682;88;20082;-78
2024/03/26 23:24:02;;;;;;;;;;;11.20;99.90;;;;;;6747371;88;20051;-78
2024/03/26 23:34:03;;;;;;;;;;;11.30;99.90;;;;;;6752580;88;20102;-77
2024/03/26 23:44:04;;;;;;;;;;;11.20;99.90;;;;;;6748735;88;20086;-77
2024/03/26 23:54:04;;;;;;;;;;;11.10;99.90;;;;;;6744917;88;20113;-78
